Time;durP1;ratioP1;P1;durP2;ratioP2;P2;SDS_P1;SDS_P2;PMS_P1;PMS_P2;Temp;Humidity;BMP_temperature;BMP_pressure;BME280_temperature;BME280_humidity;BME280_pressure;Samples;Min_cycle;Max_cycle;Signal;HPM_P1;HPM_P2
2023/04/30 00:00:29;;;;;;;10.60;6.23;;;11.00;99.90;;;;;;5039450;28;20203;-56
2023/04/30 00:02:54;;;;;;;8.97;6.17;;;11.00;99.90;;;;;;5041237;28;20268;-56
2023/04/30 00:05:20;;;;;;;11.17;7.40;;;11.00;99.90;;;;;;5040987;28;20168;-57
2023/04/30 00:07:45;;;;;;;9.70;6.10;;;11.00;99.90;;;;;;5043092;28;20175;-59
2023/04/30 00:10:11;;;;;;;10.47;6.80;;;11.00;99.90;;;;;;5040690;28;20729;-57
2023/04/30 00:12:37;;;;;;;10.43;6.67;;;11.00;99.90;;;;;;5038631;28;20176;-58
2023/04/30 00:15:03;;;;;;;10.13;6.47;;;11.00;99.90;;;;;;5041981;28;20176;-55
2023/04/30 00:17:29;;;;;;;9.57;6.80;;;11.00;99.90;;;;;;5047587;28;20437;-56
2023/04/30 00:19:55;;;;;;;8.97;6.43;;;11.10;99.90;;;;;;5044249;28;20463;-57
2023/04/30 00:22:20;;;;;;;11.30;6.90;;;11.10;99.90;;;;;;5044881;28;20221;-56
2023/04/30 00:24:46;;;;;;;15.10;6.57;;;11.10;99.90;;;;;;5040195;28;20175;-57
2023/04/30 00:27:12;;;;;;;9.10;6.63;;;11.10;99.90;;;;;;5037498;28;20178;-58
2023/04/30 00:29:37;;;;;;;10.43;6.77;;;11.10;99.90;;;;;;5046074;28;20180;-57
2023/04/30 00:32:03;;;;;;;11.90;6.70;;;11.10;99.90;;;;;;5045530;28;20272;-56
2023/04/30 00:34:29;;;;;;;11.00;7.47;;;11.00;99.90;;;;;;5043940;28;20187;-60
2023/04/30 00:36:54;;;;;;;11.50;6.93;;;11.00;99.90;;;;;;5046810;28;20183;-59
2023/04/30 00:39:20;;;;;;;11.40;7.50;;;11.00;99.90;;;;;;5046745;28;20179;-57
2023/04/30 00:41:46;;;;;;;11.80;6.83;;;11.00;99.90;;;;;;5042840;28;20299;-57
2023/04/30 00:44:11;;;;;;;13.23;7.50;;;10.90;99.90;;;;;;5043990;28;20362;-58
2023/04/30 00:46:37;;;;;;;9.60;7.00;;;10.90;99.90;;;;;;5047195;28;20261;-58
2023/04/30 00:49:03;;;;;;;16.27;7.17;;;10.90;99.90;;;;;;5031377;28;20645;-57
2023/04/30 00:51:32;;;;;;;10.77;6.20;;;10.80;99.90;;;;;;5042769;28;20263;-57
2023/04/30 00:54:00;;;;;;;9.67;6.67;;;10.80;99.90;;;;;;5051026;28;20449;-59
2023/04/30 00:56:25;;;;;;;9.50;6.60;;;10.80;99.90;;;;;;5045424;28;20430;-56
2023/04/30 00:58:55;;;;;;;10.10;6.63;;;10.80;99.90;;;;;;5044982;28;20461;-57
2023/04/30 01:01:27;;;;;;;10.57;6.30;;;10.80;99.90;;;;;;5035900;28;20211;-56
2023/04/30 01:03:52;;;;;;;9.77;6.70;;;10.80;99.90;;;;;;5041972;28;20449;-57
2023/04/30 01:06:18;;;;;;;8.93;5.60;;;10.70;99.90;;;;;;5045819;28;20954;-55
2023/04/30 01:08:44;;;;;;;11.53;6.33;;;10.70;99.90;;;;;;5045094;28;20176;-59
2023/04/30 01:11:48;;;;;;;12.07;7.17;;;10.80;99.90;;;;;;5043209;28;20225;-56
2023/04/30 01:14:39;;;;;;;10.47;5.97;;;10.80;99.90;;;;;;5040335;28;20686;-57
2023/04/30 01:17:10;;;;;;;9.00;5.83;;;10.80;99.90;;;;;;5043557;28;20457;-57
2023/04/30 01:19:43;;;;;;;11.60;6.57;;;10.80;99.90;;;;;;5042723;28;22287;-57
2023/04/30 01:22:20;;;;;;;12.60;6.90;;;10.80;99.90;;;;;;5036355;28;20442;-56
2023/04/30 01:25:06;;;;;;;9.43;6.87;;;10.80;99.90;;;;;;5048072;28;20486;-59
2023/04/30 01:27:58;;;;;;;12.10;7.30;;;10.80;99.90;;;;;;5038564;28;20421;-56
2023/04/30 01:30:24;;;;;;;11.77;6.87;;;10.80;99.90;;;;;;5040653;28;20466;-57
2023/04/30 01:32:50;;;;;;;11.60;8.07;;;10.80;99.90;;;;;;5032577;28;20863;-55
2023/04/30 01:35:16;;;;;;;9.10;6.47;;;10.80;99.90;;;;;;5040960;28;20437;-58
2023/04/30 01:38:02;;;;;;;11.57;7.13;;;10.80;99.90;;;;;;5046535;28;20656;-56
2023/04/30 01:40:41;;;;;;;10.00;6.80;;;10.90;99.90;;;;;;5043321;28;20276;-56
2023/04/30 01:43:26;;;;;;;10.10;6.73;;;10.90;99.90;;;;;;5034751;28;20426;-57
2023/04/30 01:46:07;;;;;;;12.43;7.10;;;10.90;99.90;;;;;;5047620;28;20508;-57
2023/04/30 01:48:44;;;;;;;8.90;6.33;;;10.90;99.90;;;;;;5042337;28;20434;-56
2023/04/30 01:51:21;;;;;;;9.50;6.50;;;10.90;99.90;;;;;;5037961;28;20445;-58
2023/04/30 01:53:47;;;;;;;10.23;6.70;;;10.90;99.90;;;;;;5042685;28;20437;-58
2023/04/30 01:56:37;;;;;;;12.67;6.93;;;10.80;99.90;;;;;;5038043;28;20425;-56
2023/04/30 01:59:04;;;;;;;9.20;5.80;;;10.80;99.90;;;;;;5046242;28;20421;-57
2023/04/30 02:01:31;;;;;;;13.63;7.00;;;10.90;99.90;;;;;;5038338;28;20560;-56
2023/04/30 02:03:57;;;;;;;8.77;5.80;;;10.80;99.30;;;;;;5032877;28;20437;-55
2023/04/30 02:06:27;;;;;;;9.33;6.17;;;10.80;98.90;;;;;;5038757;28;20524;-56
2023/04/30 02:08:55;;;;;;;9.70;6.30;;;10.80;99.50;;;;;;5038076;28;20191;-56
2023/04/30 02:11:23;;;;;;;17.73;7.40;;;10.80;98.80;;;;;;5043130;28;20530;-57
2023/04/30 02:13:49;;;;;;;11.20;6.30;;;10.70;98.80;;;;;;5036466;28;21011;-56
2023/04/30 02:16:14;;;;;;;10.30;6.47;;;10.70;99.20;;;;;;5032623;28;20446;-57
2023/04/30 02:18:41;;;;;;;12.27;7.77;;;10.60;99.40;;;;;;5036971;28;20643;-56
2023/04/30 02:21:07;;;;;;;10.43;6.60;;;10.60;98.80;;;;;;5038076;28;20704;-56
2023/04/30 02:23:32;;;;;;;8.23;6.20;;;10.50;99.80;;;;;;5041325;28;20512;-55
2023/04/30 02:25:58;;;;;;;10.20;6.80;;;10.50;99.90;;;;;;5035380;28;20171;-56
2023/04/30 02:28:23;;;;;;;8.20;5.93;;;10.50;99.90;;;;;;5034155;28;20179;-57
2023/04/30 02:30:49;;;;;;;10.70;7.13;;;10.40;99.90;;;;;;5036356;28;20252;-55
2023/04/30 02:33:15;;;;;;;11.10;7.37;;;10.40;99.90;;;;;;5042279;28;20574;-56
2023/04/30 02:35:41;;;;;;;9.47;6.80;;;10.40;99.90;;;;;;5040263;28;20257;-56
2023/04/30 02:38:07;;;;;;;10.50;6.77;;;10.40;99.90;;;;;;5034240;28;20230;-55
2023/04/30 02:40:32;;;;;;;9.20;6.60;;;10.40;99.90;;;;;;5041239;28;20477;-59
2023/04/30 02:43:00;;;;;;;10.40;6.50;;;10.40;99.90;;;;;;5044398;28;20179;-55
2023/04/30 02:45:25;;;;;;;11.83;6.30;;;10.40;99.90;;;;;;5047492;28;20183;-57
2023/04/30 02:47:51;;;;;;;9.30;6.50;;;10.40;99.90;;;;;;5038309;28;20435;-56
2023/04/30 02:50:16;;;;;;;10.13;6.20;;;10.40;99.90;;;;;;5043644;28;20199;-58
2023/04/30 02:52:45;;;;;;;10.67;7.00;;;10.30;99.90;;;;;;5043374;28;20190;-56
2023/04/30 02:55:10;;;;;;;9.33;6.27;;;10.30;99.90;;;;;;5046913;28;20187;-56
2023/04/30 02:57:36;;;;;;;11.50;7.27;;;10.30;99.90;;;;;;5041687;28;20437;-58
2023/04/30 03:00:02;;;;;;;11.90;7.20;;;10.20;99.90;;;;;;5038163;28;20226;-56
2023/04/30 03:02:28;;;;;;;9.97;6.27;;;10.20;99.90;;;;;;5036526;28;20255;-59
2023/04/30 03:04:53;;;;;;;9.40;6.53;;;10.10;99.90;;;;;;5036449;28;20513;-56
2023/04/30 03:07:19;;;;;;;10.37;6.33;;;10.20;99.90;;;;;;5033808;28;20180;-56
2023/04/30 03:09:45;;;;;;;10.00;6.23;;;10.20;99.90;;;;;;5041443;28;20287;-58
2023/04/30 03:12:11;;;;;;;13.93;6.30;;;10.20;99.90;;;;;;5045392;28;20195;-58
2023/04/30 03:14:36;;;;;;;8.57;6.43;;;10.20;99.90;;;;;;5037221;28;20516;-55
2023/04/30 03:17:02;;;;;;;9.33;6.73;;;10.20;99.90;;;;;;5032273;28;20180;-56
2023/04/30 03:19:27;;;;;;;11.63;7.27;;;10.30;99.90;;;;;;5026825;28;20214;-59
2023/04/30 03:21:54;;;;;;;8.77;6.47;;;10.30;99.90;;;;;;5044445;28;20203;-56
2023/04/30 03:24:19;;;;;;;9.40;7.00;;;10.30;99.90;;;;;;5042256;28;20190;-57
2023/04/30 03:26:45;;;;;;;9.20;6.47;;;10.30;99.90;;;;;;5041815;28;20931;-58
2023/04/30 03:29:11;;;;;;;8.70;7.17;;;10.30;99.90;;;;;;5048687;28;20172;-60
2023/04/30 03:31:37;;;;;;;10.70;6.97;;;10.30;99.90;;;;;;5034063;28;20550;-56
2023/04/30 03:34:02;;;;;;;11.90;6.90;;;10.30;99.90;;;;;;5039140;28;20175;-56
2023/04/30 03:36:28;;;;;;;9.40;6.13;;;10.30;99.90;;;;;;5041372;28;20183;-57
2023/04/30 03:38:53;;;;;;;9.53;6.53;;;10.30;99.90;;;;;;5038664;28;20187;-57
2023/04/30 03:41:19;;;;;;;10.37;7.30;;;10.30;99.90;;;;;;5034950;28;20207;-58
2023/04/30 03:43:45;;;;;;;11.40;6.40;;;10.30;99.90;;;;;;5031550;28;21595;-57
2023/04/30 03:46:10;;;;;;;10.30;6.63;;;10.30;99.90;;;;;;5024570;28;20560;-56
2023/04/30 03:48:36;;;;;;;8.63;6.37;;;10.30;99.90;;;;;;5038798;28;20180;-56
2023/04/30 03:51:02;;;;;;;16.20;7.00;;;10.30;99.90;;;;;;5039059;28;20207;-60
2023/04/30 03:53:27;;;;;;;8.73;6.13;;;10.30;99.90;;;;;;5046492;28;20769;-55
2023/04/30 03:55:53;;;;;;;10.13;6.87;;;10.20;99.90;;;;;;5039833;28;20180;-55
2023/04/30 03:58:20;;;;;;;8.10;6.00;;;10.20;99.90;;;;;;5045878;28;20277;-56
2023/04/30 04:00:47;;;;;;;8.30;6.43;;;10.20;99.90;;;;;;5046063;28;20298;-56
2023/04/30 04:03:13;;;;;;;7.33;5.80;;;10.20;99.90;;;;;;5041499;28;20440;-57
2023/04/30 04:05:39;;;;;;;8.50;5.80;;;10.20;99.90;;;;;;5049451;28;20441;-57
2023/04/30 04:08:05;;;;;;;9.80;5.80;;;10.20;99.90;;;;;;5041538;28;20776;-56
2023/04/30 04:10:31;;;;;;;8.67;6.27;;;10.20;99.90;;;;;;5031878;28;21511;-59
2023/04/30 04:12:57;;;;;;;9.83;5.77;;;10.20;99.90;;;;;;5044644;28;21001;-57
2023/04/30 04:15:22;;;;;;;11.70;6.70;;;10.20;99.90;;;;;;5048422;28;20509;-55
2023/04/30 04:17:48;;;;;;;7.97;6.33;;;10.10;99.90;;;;;;5041164;28;20786;-58
2023/04/30 04:20:14;;;;;;;9.10;5.83;;;10.10;99.90;;;;;;5039933;28;20241;-58
2023/04/30 04:22:39;;;;;;;9.67;6.23;;;10.10;99.90;;;;;;5048558;28;20182;-58
2023/04/30 04:25:05;;;;;;;9.43;6.63;;;10.10;99.90;;;;;;5048015;28;20175;-57
2023/04/30 04:27:32;;;;;;;10.93;6.13;;;10.10;99.90;;;;;;5042485;28;20241;-56
2023/04/30 04:29:57;;;;;;;9.97;6.40;;;10.10;99.90;;;;;;5040844;28;20529;-56
2023/04/30 04:32:23;;;;;;;8.50;6.00;;;10.10;99.90;;;;;;5043304;28;20529;-57
2023/04/30 04:34:49;;;;;;;12.77;6.57;;;10.20;99.90;;;;;;5033610;28;20295;-56
2023/04/30 04:37:16;;;;;;;10.70;7.30;;;10.20;99.90;;;;;;5037029;28;20270;-57
2023/04/30 04:39:42;;;;;;;9.07;6.40;;;10.20;99.90;;;;;;5044513;28;20183;-58
2023/04/30 04:42:08;;;;;;;11.13;6.43;;;10.10;99.90;;;;;;5064037;23;20499;-62
2023/04/30 04:44:35;;;;;;;9.73;6.57;;;10.10;99.90;;;;;;5062099;28;20159;-62
2023/04/30 04:47:02;;;;;;;10.20;6.83;;;10.20;99.90;;;;;;5045844;28;20431;-63
2023/04/30 04:49:27;;;;;;;11.33;6.70;;;10.20;99.90;;;;;;5053441;28;20422;-62
2023/04/30 04:51:53;;;;;;;10.93;6.70;;;10.20;99.90;;;;;;5057828;28;20543;-63
2023/04/30 04:54:18;;;;;;;9.93;6.87;;;10.20;99.90;;;;;;5043728;28;20662;-63
2023/04/30 04:56:44;;;;;;;8.33;6.40;;;10.20;99.90;;;;;;5036849;28;20233;-63
2023/04/30 04:59:09;;;;;;;8.57;6.60;;;10.30;99.90;;;;;;5025805;28;20176;-63
2023/04/30 05:01:35;;;;;;;9.10;7.10;;;10.30;99.90;;;;;;5033513;28;20699;-63
2023/04/30 05:04:01;;;;;;;12.33;7.90;;;10.30;99.90;;;;;;5024946;28;22251;-63
2023/04/30 05:06:27;;;;;;;9.60;7.07;;;10.30;99.90;;;;;;5048025;28;20786;-63
2023/04/30 05:08:53;;;;;;;9.53;7.20;;;10.40;99.90;;;;;;5043453;28;20179;-63
2023/04/30 05:11:21;;;;;;;11.00;7.20;;;10.40;99.90;;;;;;5042292;28;20498;-63
2023/04/30 05:13:46;;;;;;;11.10;7.70;;;10.50;99.90;;;;;;5046290;28;20183;-62
2023/04/30 05:16:12;;;;;;;9.43;7.33;;;10.50;99.90;;;;;;5044035;28;20452;-63
2023/04/30 05:18:38;;;;;;;9.63;7.10;;;10.50;99.90;;;;;;5045001;28;20179;-62
2023/04/30 05:21:03;;;;;;;8.80;6.90;;;10.50;99.90;;;;;;5042030;28;20582;-63
2023/04/30 05:23:29;;;;;;;12.90;7.27;;;10.50;99.90;;;;;;5044005;28;20195;-63
2023/04/30 05:25:55;;;;;;;8.10;7.00;;;10.50;99.90;;;;;;5028272;28;20220;-63
2023/04/30 05:28:21;;;;;;;12.60;7.17;;;10.50;99.90;;;;;;5037671;28;20233;-63
2023/04/30 05:30:47;;;;;;;9.60;7.00;;;10.50;99.90;;;;;;5043272;28;21016;-63
2023/04/30 05:33:12;;;;;;;10.57;7.40;;;10.60;99.90;;;;;;5046044;28;20207;-63
2023/04/30 05:35:38;;;;;;;13.43;8.37;;;10.50;99.90;;;;;;5045612;28;20213;-63
2023/04/30 05:38:03;;;;;;;12.17;8.53;;;10.60;99.90;;;;;;5041803;28;20183;-63
2023/04/30 05:40:29;;;;;;;10.50;7.73;;;10.60;99.90;;;;;;5031965;28;20696;-63
2023/04/30 05:42:55;;;;;;;12.00;8.60;;;10.70;99.90;;;;;;5039030;28;20695;-63
2023/04/30 05:45:21;;;;;;;9.90;7.40;;;10.70;99.90;;;;;;5044133;28;20225;-63
2023/04/30 05:47:46;;;;;;;11.30;8.00;;;10.70;99.90;;;;;;5044239;28;20183;-63
2023/04/30 05:50:12;;;;;;;10.77;8.23;;;10.70;99.90;;;;;;5039609;28;20210;-63
2023/04/30 05:52:37;;;;;;;11.77;8.13;;;10.70;99.90;;;;;;5022187;28;20613;-63
2023/04/30 05:55:04;;;;;;;12.40;8.50;;;10.70;99.90;;;;;;5024977;28;20250;-62
2023/04/30 05:57:29;;;;;;;12.00;8.80;;;10.70;99.90;;;;;;5042669;28;20269;-62
2023/04/30 05:59:55;;;;;;;13.83;8.60;;;10.80;99.90;;;;;;5022300;28;20462;-62
2023/04/30 06:02:20;;;;;;;10.60;8.50;;;10.80;99.90;;;;;;5041212;28;20201;-62
2023/04/30 06:04:46;;;;;;;11.93;8.50;;;10.80;99.90;;;;;;5027927;28;20203;-63
2023/04/30 06:07:12;;;;;;;10.70;7.60;;;10.90;99.90;;;;;;5040553;28;20186;-62
2023/04/30 06:09:38;;;;;;;11.47;7.80;;;10.90;99.90;;;;;;5048034;28;20554;-62
2023/04/30 06:12:04;;;;;;;10.37;8.00;;;11.00;99.40;;;;;;5038247;28;20563;-62
2023/04/30 06:14:29;;;;;;;14.20;8.30;;;11.00;98.00;;;;;;5045339;28;20270;-62
2023/04/30 06:16:55;;;;;;;11.60;8.27;;;11.00;97.90;;;;;;5044028;28;21020;-63
2023/04/30 06:19:21;;;;;;;11.33;8.50;;;11.00;97.70;;;;;;5040528;28;20176;-62
2023/04/30 06:21:46;;;;;;;19.93;7.77;;;11.00;97.30;;;;;;5027675;28;20218;-62
2023/04/30 06:24:12;;;;;;;11.40;8.47;;;11.10;97.30;;;;;;5019489;28;20195;-62
2023/04/30 06:26:37;;;;;;;10.93;7.77;;;11.20;96.30;;;;;;5044679;28;20179;-62
2023/04/30 06:29:04;;;;;;;13.57;8.60;;;11.20;96.00;;;;;;5040815;28;20628;-62
2023/04/30 06:31:29;;;;;;;16.67;7.77;;;11.30;95.00;;;;;;5040725;28;20607;-62
2023/04/30 06:33:55;;;;;;;11.33;7.20;;;11.40;92.40;;;;;;5037365;28;20438;-62
2023/04/30 06:36:21;;;;;;;12.93;8.37;;;11.50;91.00;;;;;;5041612;28;20179;-62
2023/04/30 06:38:46;;;;;;;9.10;7.27;;;11.50;90.00;;;;;;5044516;28;20214;-62
2023/04/30 06:41:12;;;;;;;11.50;8.20;;;11.50;90.90;;;;;;5044850;28;20306;-63
2023/04/30 06:43:38;;;;;;;10.87;7.50;;;11.50;91.00;;;;;;5039628;28;20286;-62
2023/04/30 06:46:05;;;;;;;11.00;8.33;;;11.60;91.60;;;;;;5041916;28;20449;-62
2023/04/30 06:48:31;;;;;;;10.83;8.30;;;11.60;90.20;;;;;;5031828;28;20180;-62
2023/04/30 06:50:57;;;;;;;11.33;7.83;;;11.60;89.50;;;;;;5038518;28;20442;-62
2023/04/30 06:53:22;;;;;;;10.47;7.60;;;11.70;88.80;;;;;;5041167;28;20179;-62
2023/04/30 06:55:48;;;;;;;11.50;8.00;;;11.70;87.90;;;;;;5043663;28;20286;-62
2023/04/30 06:58:14;;;;;;;10.50;7.70;;;11.70;85.90;;;;;;5044807;28;20184;-62
2023/04/30 07:00:40;;;;;;;10.90;6.97;;;11.70;87.20;;;;;;5038592;28;20209;-62
2023/04/30 07:03:05;;;;;;;12.13;7.53;;;11.80;87.20;;;;;;5037862;28;20195;-62
2023/04/30 07:05:31;;;;;;;9.80;7.03;;;11.80;87.80;;;;;;5043651;28;20885;-62
2023/04/30 07:08:00;;;;;;;11.30;7.77;;;11.80;87.70;;;;;;5036341;28;20648;-62
2023/04/30 07:10:26;;;;;;;11.80;7.80;;;11.90;84.70;;;;;;5046416;28;20429;-62
2023/04/30 07:12:52;;;;;;;11.33;7.23;;;12.00;83.50;;;;;;5032818;28;20445;-62
2023/04/30 07:15:18;;;;;;;9.07;7.70;;;11.90;81.30;;;;;;5035069;28;20175;-62
2023/04/30 07:17:43;;;;;;;10.30;7.10;;;12.00;80.40;;;;;;5028541;28;20751;-63
2023/04/30 07:20:09;;;;;;;9.83;7.13;;;12.10;80.50;;;;;;5038411;28;20282;-62
2023/04/30 07:22:35;;;;;;;9.40;7.13;;;12.30;80.70;;;;;;5039947;28;20199;-62
2023/04/30 07:25:01;;;;;;;9.37;6.73;;;12.50;80.60;;;;;;5043368;28;20853;-62
2023/04/30 07:27:27;;;;;;;9.17;6.87;;;12.60;77.60;;;;;;5035719;28;20182;-62
2023/04/30 07:29:53;;;;;;;8.80;7.20;;;12.70;75.80;;;;;;5048636;28;20187;-61
2023/04/30 07:32:19;;;;;;;9.70;7.10;;;12.80;74.90;;;;;;5047097;28;20464;-62
2023/04/30 07:34:45;;;;;;;11.57;7.77;;;12.80;73.20;;;;;;5044359;28;20528;-62
2023/04/30 07:37:10;;;;;;;11.10;7.13;;;12.90;72.10;;;;;;5028065;28;20171;-63
2023/04/30 07:39:36;;;;;;;9.00;6.50;;;12.90;71.70;;;;;;5036024;28;20188;-63
2023/04/30 07:42:02;;;;;;;11.83;6.70;;;13.00;70.50;;;;;;5041924;28;20693;-62
2023/04/30 07:44:28;;;;;;;10.50;6.10;;;13.00;70.00;;;;;;5046734;28;20179;-62
2023/04/30 07:46:54;;;;;;;11.63;6.10;;;13.00;69.20;;;;;;5043234;28;20433;-62
2023/04/30 07:49:20;;;;;;;7.50;5.83;;;13.10;69.70;;;;;;5039305;28;20441;-62
2023/04/30 07:51:46;;;;;;;8.33;6.40;;;13.20;70.20;;;;;;5035921;28;20195;-62
2023/04/30 07:54:12;;;;;;;7.00;5.60;;;13.30;69.80;;;;;;5048083;28;20449;-62
2023/04/30 07:56:38;;;;;;;6.77;5.37;;;13.40;69.10;;;;;;5049520;28;20186;-62
2023/04/30 07:59:04;;;;;;;6.20;5.60;;;13.50;68.80;;;;;;5048916;28;20433;-62
2023/04/30 08:01:29;;;;;;;8.60;6.70;;;13.60;68.50;;;;;;5042711;28;20472;-62
2023/04/30 08:03:55;;;;;;;7.50;6.33;;;13.70;68.30;;;;;;5047343;28;20175;-62
2023/04/30 08:06:21;;;;;;;8.50;5.67;;;13.70;67.20;;;;;;5046615;28;20752;-62
2023/04/30 08:08:47;;;;;;;9.00;5.60;;;13.70;66.10;;;;;;5048604;28;20215;-63
2023/04/30 08:11:14;;;;;;;8.27;5.20;;;13.80;65.30;;;;;;5045991;28;21342;-63
2023/04/30 08:13:40;;;;;;;10.90;5.23;;;13.80;64.20;;;;;;5043118;28;22033;-62
2023/04/30 08:16:06;;;;;;;8.27;5.93;;;13.90;63.30;;;;;;5037069;28;20441;-62
2023/04/30 08:18:32;;;;;;;6.00;5.20;;;13.90;62.60;;;;;;5043904;28;20432;-62
2023/04/30 08:20:58;;;;;;;5.67;4.80;;;13.90;63.30;;;;;;5044360;28;20416;-61
2023/04/30 08:23:24;;;;;;;7.20;5.60;;;14.00;63.00;;;;;;5048376;28;20206;-62
2023/04/30 08:25:50;;;;;;;7.00;5.40;;;14.20;62.40;;;;;;5044478;28;20542;-62
2023/04/30 08:28:16;;;;;;;7.40;5.90;;;14.20;61.50;;;;;;5022733;28;20237;-63
2023/04/30 08:30:42;;;;;;;7.60;6.70;;;14.30;61.20;;;;;;5041496;28;20421;-62
2023/04/30 08:33:08;;;;;;;6.20;4.97;;;14.30;60.60;;;;;;5047437;28;20957;-62
2023/04/30 08:35:33;;;;;;;7.67;5.77;;;14.30;60.50;;;;;;5046558;28;20175;-63
2023/04/30 08:37:59;;;;;;;5.87;5.23;;;14.30;59.80;;;;;;5043481;28;20183;-63
2023/04/30 08:40:25;;;;;;;7.33;5.20;;;14.40;60.20;;;;;;5045769;28;20194;-63
2023/04/30 08:43:03;;;;;;;5.37;4.80;;;14.40;59.90;;;;;;5047847;28;20199;-62
2023/04/30 08:45:31;;;;;;;9.60;5.70;;;14.60;60.10;;;;;;5049120;28;20429;-62
2023/04/30 08:47:59;;;;;;;5.20;4.70;;;14.70;59.30;;;;;;5037858;28;20521;-63
2023/04/30 08:50:25;;;;;;;7.90;5.20;;;14.70;59.90;;;;;;5039855;28;20417;-62
2023/04/30 08:52:50;;;;;;;5.93;5.17;;;14.90;59.50;;;;;;5039713;28;20457;-62
2023/04/30 08:55:16;;;;;;;6.63;4.73;;;14.90;58.60;;;;;;5024587;28;20615;-63
2023/04/30 08:57:41;;;;;;;10.07;4.80;;;15.00;58.70;;;;;;5031645;28;20183;-62
2023/04/30 09:00:08;;;;;;;5.60;4.87;;;15.10;58.30;;;;;;5045301;28;20206;-62
2023/04/30 09:02:37;;;;;;;6.80;5.37;;;15.10;57.50;;;;;;5045305;28;20191;-62
2023/04/30 09:05:10;;;;;;;4.73;4.23;;;15.10;57.70;;;;;;5043235;28;20430;-62
2023/04/30 09:07:38;;;;;;;7.10;5.30;;;15.10;57.70;;;;;;5041074;28;20430;-62
2023/04/30 09:10:04;;;;;;;5.90;5.13;;;15.20;58.30;;;;;;5040596;28;20452;-63
2023/04/30 09:12:29;;;;;;;7.03;4.87;;;15.10;57.80;;;;;;5025856;28;20441;-62
2023/04/30 09:15:03;;;;;;;6.70;4.67;;;15.20;58.10;;;;;;5046976;28;20431;-62
2023/04/30 09:17:30;;;;;;;5.43;4.70;;;15.30;58.90;;;;;;5048813;28;20250;-63
2023/04/30 09:20:17;;;;;;;7.53;4.87;;;15.30;58.90;;;;;;5042516;28;20476;-63
2023/04/30 09:22:43;;;;;;;5.43;4.13;;;15.50;58.90;;;;;;5039944;28;20442;-62
2023/04/30 09:25:09;;;;;;;4.83;4.33;;;15.60;58.70;;;;;;5032956;28;20504;-62
2023/04/30 09:27:34;;;;;;;5.47;4.70;;;15.70;58.10;;;;;;5045177;28;20175;-63
2023/04/30 09:30:00;;;;;;;5.30;4.10;;;15.80;57.70;;;;;;5039291;28;20417;-62
2023/04/30 09:32:26;;;;;;;5.53;4.20;;;15.90;58.40;;;;;;5046397;28;20675;-62
2023/04/30 09:34:52;;;;;;;4.83;4.33;;;16.00;58.20;;;;;;5045305;28;20178;-63
2023/04/30 09:37:17;;;;;;;8.70;4.10;;;16.10;58.00;;;;;;5035159;28;20546;-63
2023/04/30 09:39:52;;;;;;;4.63;4.23;;;16.30;58.00;;;;;;5042703;28;20207;-62
2023/04/30 09:42:19;;;;;;;4.30;3.90;;;16.50;58.50;;;;;;5041936;28;20210;-62
2023/04/30 09:44:45;;;;;;;5.47;4.20;;;16.60;57.60;;;;;;5037625;28;20417;-63
2023/04/30 09:47:13;;;;;;;5.37;4.17;;;16.60;56.70;;;;;;5036985;28;20425;-63
2023/04/30 09:49:41;;;;;;;4.00;3.63;;;16.60;56.10;;;;;;5042607;28;20441;-63
2023/04/30 09:52:07;;;;;;;5.63;4.03;;;16.60;56.20;;;;;;5045250;28;20445;-62
2023/04/30 09:54:34;;;;;;;4.20;3.80;;;16.70;55.80;;;;;;5046629;28;20770;-63
2023/04/30 09:57:01;;;;;;;4.07;3.63;;;16.90;55.80;;;;;;5039093;28;20456;-62
2023/04/30 09:59:35;;;;;;;4.30;3.70;;;17.00;55.60;;;;;;5047157;28;20441;-62
2023/04/30 10:02:05;;;;;;;5.47;4.87;;;17.10;55.60;;;;;;5046075;28;20526;-63
2023/04/30 10:04:34;;;;;;;4.37;3.70;;;17.10;55.60;;;;;;5045011;28;20426;-63
2023/04/30 10:07:07;;;;;;;5.10;4.00;;;17.00;54.70;;;;;;5038131;28;20482;-63
2023/04/30 10:09:43;;;;;;;7.63;4.00;;;16.80;54.40;;;;;;5035417;28;20603;-62
2023/04/30 10:12:34;;;;;;;4.33;3.93;;;16.60;54.10;;;;;;5031884;28;20511;-63
2023/04/30 10:15:14;;;;;;;5.27;3.50;;;16.70;54.10;;;;;;5029558;28;20555;-62
2023/04/30 10:17:41;;;;;;;3.67;3.37;;;16.90;53.00;;;;;;5027454;28;20801;-63
2023/04/30 10:20:08;;;;;;;3.57;3.20;;;17.00;53.30;;;;;;5038268;28;20965;-62
2023/04/30 10:22:35;;;;;;;3.77;3.30;;;17.20;54.10;;;;;;5043062;28;20461;-62
2023/04/30 10:25:01;;;;;;;4.73;3.70;;;17.30;54.40;;;;;;5045918;28;20433;-62
2023/04/30 10:27:29;;;;;;;3.67;3.37;;;17.40;53.60;;;;;;5048785;28;20495;-63
2023/04/30 10:29:56;;;;;;;4.30;3.50;;;17.50;53.70;;;;;;5033485;28;20512;-62
2023/04/30 10:32:22;;;;;;;4.30;3.70;;;17.50;52.20;;;;;;5042177;28;20477;-63
2023/04/30 10:35:16;;;;;;;5.50;3.93;;;17.40;52.80;;;;;;5041520;28;20437;-63
2023/04/30 10:37:53;;;;;;;3.67;3.37;;;17.40;53.00;;;;;;5036144;28;20463;-62
2023/04/30 10:40:19;;;;;;;4.70;3.43;;;17.10;52.90;;;;;;5038298;28;20544;-60
2023/04/30 10:42:48;;;;;;;6.20;3.80;;;16.80;53.00;;;;;;5033764;28;21057;-61
2023/04/30 10:45:19;;;;;;;3.40;3.10;;;16.60;53.50;;;;;;5036633;28;20322;-60
2023/04/30 10:47:45;;;;;;;3.40;3.10;;;16.50;54.50;;;;;;5032263;28;20539;-58
2023/04/30 10:50:11;;;;;;;3.60;3.30;;;16.70;53.90;;;;;;5042022;28;20425;-64
2023/04/30 10:52:38;;;;;;;2.90;2.60;;;17.00;55.00;;;;;;5043555;28;20966;-65
2023/04/30 10:55:07;;;;;;;3.47;3.17;;;17.30;55.00;;;;;;5040300;28;20524;-64
2023/04/30 10:57:41;;;;;;;3.80;3.00;;;17.70;54.50;;;;;;5041668;28;20487;-64
2023/04/30 11:00:07;;;;;;;3.60;3.10;;;17.90;53.10;;;;;;5029542;28;20472;-63
2023/04/30 11:02:43;;;;;;;3.93;3.03;;;18.10;52.90;;;;;;5041415;28;20459;-66
2023/04/30 11:05:14;;;;;;;3.20;2.90;;;18.20;52.30;;;;;;5039419;28;20178;-65
2023/04/30 11:07:50;;;;;;;4.50;3.80;;;18.20;52.10;;;;;;5043251;28;20945;-65
2023/04/30 11:10:20;;;;;;;3.90;2.67;;;18.10;51.10;;;;;;5038423;28;20424;-64
2023/04/30 11:12:47;;;;;;;3.13;2.87;;;18.10;51.40;;;;;;5036054;28;20448;-64
2023/04/30 11:15:16;;;;;;;3.03;2.63;;;18.20;50.60;;;;;;5046000;28;20430;-64
2023/04/30 11:17:47;;;;;;;3.10;2.90;;;18.20;49.70;;;;;;5044374;28;20433;-64
2023/04/30 11:20:17;;;;;;;3.63;2.93;;;18.10;49.70;;;;;;5041579;28;20569;-64
2023/04/30 11:22:44;;;;;;;2.70;2.40;;;18.10;49.90;;;;;;5037189;28;20965;-64
2023/04/30 11:25:14;;;;;;;9.17;3.00;;;18.30;50.30;;;;;;5035049;28;20484;-64
2023/04/30 11:27:44;;;;;;;4.93;3.43;;;18.60;51.30;;;;;;5036227;28;20425;-64
2023/04/30 11:30:16;;;;;;;3.33;3.00;;;18.70;51.20;;;;;;5036030;28;20474;-63
2023/04/30 11:32:46;;;;;;;3.53;2.90;;;18.70;51.00;;;;;;5041257;28;20449;-63
2023/04/30 11:35:16;;;;;;;3.17;2.87;;;18.70;51.30;;;;;;5035917;28;20422;-64
2023/04/30 11:37:43;;;;;;;4.17;3.20;;;18.60;51.20;;;;;;5033946;28;20520;-64
2023/04/30 11:40:12;;;;;;;3.40;3.10;;;18.50;51.10;;;;;;5044573;28;20504;-63
2023/04/30 11:42:40;;;;;;;4.97;2.80;;;18.50;51.50;;;;;;5046295;28;20523;-64
2023/04/30 11:45:07;;;;;;;4.93;3.33;;;18.40;51.00;;;;;;5039236;28;20456;-63
2023/04/30 11:47:42;;;;;;;4.80;2.80;;;18.30;51.30;;;;;;5029026;28;20957;-63
2023/04/30 11:50:12;;;;;;;3.13;2.83;;;18.30;51.80;;;;;;5039437;28;20471;-62
2023/04/30 11:52:39;;;;;;;3.27;2.97;;;18.30;51.80;;;;;;5045139;28;20441;-62
2023/04/30 11:55:15;;;;;;;5.23;3.30;;;18.40;51.60;;;;;;5026658;28;20443;-63
2023/04/30 11:57:42;;;;;;;3.40;3.10;;;18.40;51.60;;;;;;5022476;28;20431;-64
2023/04/30 12:00:11;;;;;;;3.00;2.80;;;18.50;51.50;;;;;;5041071;28;20862;-62
2023/04/30 12:02:38;;;;;;;3.27;3.00;;;18.60;51.20;;;;;;5043828;28;20453;-63
2023/04/30 12:05:05;;;;;;;3.10;2.80;;;18.50;51.30;;;;;;5044660;28;20993;-61
2023/04/30 12:07:31;;;;;;;3.30;3.00;;;18.30;51.10;;;;;;5028222;28;21051;-61
2023/04/30 12:09:58;;;;;;;5.83;3.10;;;18.10;50.90;;;;;;5036060;28;20457;-66
2023/04/30 12:12:28;;;;;;;3.37;3.00;;;18.00;50.80;;;;;;5043458;28;20233;-61
2023/04/30 12:14:54;;;;;;;5.67;3.43;;;17.80;50.90;;;;;;5040508;28;20935;-61
2023/04/30 12:17:33;;;;;;;5.23;3.27;;;17.70;51.50;;;;;;5043945;28;20429;-61
2023/04/30 12:19:59;;;;;;;3.20;2.90;;;17.60;51.90;;;;;;5041456;28;20439;-61
2023/04/30 12:22:25;;;;;;;3.40;3.10;;;17.40;51.50;;;;;;5044070;28;20934;-61
2023/04/30 12:24:51;;;;;;;7.00;3.53;;;17.20;51.20;;;;;;5032348;28;20176;-61
2023/04/30 12:27:17;;;;;;;3.50;2.90;;;17.20;51.20;;;;;;5036966;28;20444;-61
2023/04/30 12:29:47;;;;;;;3.07;2.77;;;17.20;51.60;;;;;;5041086;28;20330;-63
2023/04/30 12:32:17;;;;;;;3.70;3.40;;;17.20;52.30;;;;;;5031777;28;20505;-62
2023/04/30 12:34:43;;;;;;;6.87;3.27;;;17.20;52.40;;;;;;5039300;28;20539;-63
2023/04/30 12:37:09;;;;;;;3.93;3.43;;;17.10;52.20;;;;;;5040001;28;20472;-61
2023/04/30 12:39:35;;;;;;;3.50;3.20;;;17.00;52.10;;;;;;5042319;28;20273;-61
2023/04/30 12:42:03;;;;;;;3.90;3.40;;;17.00;52.50;;;;;;5041530;28;20222;-61
2023/04/30 12:44:29;;;;;;;5.20;3.67;;;16.90;52.40;;;;;;5022869;28;20172;-61